Time;durP1;ratioP1;P1;durP2;ratioP2;P2;SDS_P1;SDS_P2;PMS_P1;PMS_P2;Temp;Humidity;BMP_temperature;BMP_pressure;BME280_temperature;BME280_humidity;BME280_pressure;Samples;Min_cycle;Max_cycle;Signal;HPM_P1;HPM_P2
2023/11/04 00:04:10;;;;;;;0.30;0.30;;;9.80;99.90;;;;;;4408874;32;20537;-60
2023/11/04 00:06:36;;;;;;;1.25;0.60;;;9.80;99.90;;;;;;4407080;32;20087;-58
2023/11/04 00:09:01;;;;;;;0.65;0.65;;;9.80;99.90;;;;;;4404608;32;20089;-59
2023/11/04 00:11:27;;;;;;;3.40;0.85;;;9.80;99.90;;;;;;4406427;32;20061;-58
2023/11/04 00:13:53;;;;;;;0.40;0.40;;;9.70;99.90;;;;;;4404324;32;20098;-59
2023/11/04 00:16:18;;;;;;;2.55;0.52;;;9.70;99.90;;;;;;4406649;32;21861;-60
2023/11/04 00:18:44;;;;;;;0.47;0.47;;;9.60;99.90;;;;;;4387303;32;20085;-60
2023/11/04 00:21:10;;;;;;;0.22;0.22;;;9.60;99.90;;;;;;4406451;32;20074;-60
2023/11/04 00:23:36;;;;;;;0.43;0.30;;;9.60;99.90;;;;;;4403369;32;20079;-59
2023/11/04 00:26:02;;;;;;;1.08;0.73;;;9.60;99.90;;;;;;4403583;32;20066;-60
2023/11/04 00:28:28;;;;;;;0.30;0.30;;;9.60;99.90;;;;;;4388246;32;20069;-60
2023/11/04 00:30:53;;;;;;;0.62;0.45;;;9.60;99.90;;;;;;4408358;32;20116;-60
2023/11/04 00:33:19;;;;;;;2.45;0.50;;;9.60;99.90;;;;;;4405317;32;20134;-59
2023/11/04 00:35:44;;;;;;;0.30;0.30;;;9.50;99.90;;;;;;4404326;32;21094;-60
2023/11/04 00:38:10;;;;;;;0.30;0.30;;;9.60;99.90;;;;;;4397372;32;20112;-60
2023/11/04 00:40:35;;;;;;;0.28;0.28;;;9.50;99.90;;;;;;4405071;32;20092;-59
2023/11/04 00:43:01;;;;;;;0.40;0.40;;;9.50;99.90;;;;;;4405214;32;20114;-60
2023/11/04 00:45:27;;;;;;;2.20;0.95;;;9.40;99.90;;;;;;4402039;32;20054;-59
2023/11/04 00:47:53;;;;;;;0.73;0.73;;;9.40;99.90;;;;;;4400094;32;20172;-61
2023/11/04 00:50:19;;;;;;;0.85;0.77;;;9.40;99.90;;;;;;4406010;32;20125;-58
2023/11/04 00:52:45;;;;;;;0.30;0.30;;;9.40;99.90;;;;;;4402341;32;20058;-61
2023/11/04 00:55:10;;;;;;;1.65;1.20;;;9.30;99.90;;;;;;4403605;32;20081;-60
2023/11/04 00:57:35;;;;;;;0.20;0.20;;;9.30;99.90;;;;;;4399987;32;20054;-59
2023/11/04 01:00:01;;;;;;;0.45;0.45;;;9.30;99.90;;;;;;4402090;32;20097;-60
2023/11/04 01:02:26;;;;;;;5.68;0.88;;;9.30;99.90;;;;;;4403796;32;20416;-60
2023/11/04 01:04:52;;;;;;;0.20;0.20;;;9.30;99.90;;;;;;4401243;32;20104;-60
2023/11/04 01:07:18;;;;;;;0.20;0.20;;;9.30;99.90;;;;;;4405514;32;20069;-60
2023/11/04 01:09:43;;;;;;;0.50;0.50;;;9.30;99.90;;;;;;4405663;32;20069;-60
2023/11/04 01:12:09;;;;;;;0.40;0.40;;;9.30;99.90;;;;;;4408479;32;20085;-60
2023/11/04 01:14:35;;;;;;;1.00;0.60;;;9.30;99.90;;;;;;4402295;32;20061;-59
2023/11/04 01:17:01;;;;;;;0.30;0.30;;;9.20;99.90;;;;;;4402714;32;20128;-60
2023/11/04 01:19:26;;;;;;;0.47;0.47;;;9.20;99.90;;;;;;4404080;32;20070;-60
2023/11/04 01:21:51;;;;;;;0.30;0.30;;;9.20;99.90;;;;;;4404622;32;20078;-60
2023/11/04 01:24:17;;;;;;;0.98;0.65;;;9.10;99.90;;;;;;4403001;32;20069;-59
2023/11/04 01:26:42;;;;;;;0.40;0.40;;;9.00;99.90;;;;;;4405680;32;20998;-60
2023/11/04 01:29:10;;;;;;;0.30;0.30;;;9.00;99.90;;;;;;4401970;32;20517;-59
2023/11/04 01:31:36;;;;;;;0.30;0.30;;;8.90;99.90;;;;;;4403631;32;21655;-60
2023/11/04 01:34:01;;;;;;;0.35;0.35;;;9.00;99.90;;;;;;4405360;32;20057;-59
2023/11/04 01:36:27;;;;;;;0.30;0.30;;;9.00;99.90;;;;;;4403022;32;20098;-60
2023/11/04 01:38:52;;;;;;;0.82;0.68;;;8.90;99.90;;;;;;4396859;32;20082;-61
2023/11/04 01:41:18;;;;;;;0.30;0.30;;;8.90;99.90;;;;;;4402286;32;20074;-60
2023/11/04 01:43:43;;;;;;;50.75;1.65;;;8.80;99.90;;;;;;4402945;32;20553;-59
2023/11/04 01:46:13;;;;;;;0.20;0.20;;;8.80;99.90;;;;;;4403604;32;20133;-59
2023/11/04 01:48:40;;;;;;;0.20;0.20;;;8.80;99.90;;;;;;4403255;32;20073;-59
2023/11/04 01:51:07;;;;;;;0.20;0.20;;;8.70;99.90;;;;;;4404030;32;20482;-60
2023/11/04 01:53:33;;;;;;;0.62;0.50;;;8.70;99.90;;;;;;4403134;32;20096;-59
2023/11/04 01:56:00;;;;;;;0.30;0.30;;;8.70;99.90;;;;;;4404552;32;20057;-60
2023/11/04 01:58:28;;;;;;;0.52;0.52;;;8.70;99.90;;;;;;4398280;32;20441;-59
2023/11/04 02:00:53;;;;;;;0.40;0.40;;;8.70;99.90;;;;;;4402303;32;20443;-59
2023/11/04 02:03:19;;;;;;;3.35;1.02;;;8.60;99.90;;;;;;4405506;32;20057;-59
2023/11/04 02:05:45;;;;;;;1.17;0.52;;;8.70;99.90;;;;;;4405628;32;20081;-60
2023/11/04 02:08:10;;;;;;;0.28;0.28;;;8.70;99.90;;;;;;4401900;32;20077;-59
2023/11/04 02:10:36;;;;;;;0.30;0.30;;;8.60;99.90;;;;;;4404752;32;20090;-59
2023/11/04 02:13:01;;;;;;;1.08;0.70;;;8.60;99.90;;;;;;4403226;32;20057;-59
2023/11/04 02:15:27;;;;;;;0.30;0.30;;;8.60;99.90;;;;;;4405248;32;20086;-60
2023/11/04 02:17:52;;;;;;;0.20;0.20;;;8.50;99.90;;;;;;4399471;32;20070;-60
2023/11/04 02:20:20;;;;;;;0.30;0.30;;;8.50;99.90;;;;;;4401455;32;20059;-60
2023/11/04 02:22:46;;;;;;;0.20;0.20;;;8.40;99.90;;;;;;4397625;32;20077;-60
2023/11/04 02:25:16;;;;;;;0.30;0.30;;;8.40;99.90;;;;;;4402406;32;20120;-60
2023/11/04 02:27:42;;;;;;;0.40;0.40;;;8.40;99.90;;;;;;4403086;32;20069;-60
2023/11/04 02:30:10;;;;;;;0.52;0.50;;;8.40;99.90;;;;;;4404104;32;20098;-59
2023/11/04 02:32:36;;;;;;;1.37;0.77;;;8.30;99.90;;;;;;4405607;32;20301;-60
2023/11/04 02:35:04;;;;;;;0.40;0.40;;;8.30;99.90;;;;;;4406350;32;20081;-60
2023/11/04 02:37:30;;;;;;;0.60;0.60;;;8.30;99.90;;;;;;4404384;32;20439;-60
2023/11/04 02:39:55;;;;;;;0.30;0.30;;;8.30;99.90;;;;;;4402709;32;20050;-59
2023/11/04 02:42:21;;;;;;;3.17;1.80;;;8.40;99.90;;;;;;4406892;32;20109;-59
2023/11/04 02:44:46;;;;;;;0.22;0.22;;;8.30;99.90;;;;;;4403932;32;20127;-58
2023/11/04 02:47:12;;;;;;;1.10;0.47;;;8.30;99.90;;;;;;4407716;32;20085;-59
2023/11/04 02:49:37;;;;;;;0.57;0.50;;;8.20;99.90;;;;;;4404186;32;20092;-59
2023/11/04 02:52:03;;;;;;;2.62;1.15;;;8.20;99.90;;;;;;4406529;32;20120;-60
2023/11/04 02:54:28;;;;;;;1.95;0.70;;;8.30;99.90;;;;;;4406751;32;20078;-60
2023/11/04 02:56:54;;;;;;;1.30;1.20;;;8.20;99.90;;;;;;4403143;32;20085;-59
2023/11/04 02:59:20;;;;;;;0.30;0.30;;;8.10;99.90;;;;;;4402509;32;20081;-60
2023/11/04 03:04:12;;;;;;;0.30;0.30;;;8.10;99.90;;;;;;4408223;32;20082;-59
2023/11/04 03:06:38;;;;;;;0.20;0.20;;;8.10;99.90;;;;;;4406016;32;20074;-63
2023/11/04 03:09:04;;;;;;;0.50;0.50;;;8.00;99.90;;;;;;4404041;32;20085;-60
2023/11/04 03:11:29;;;;;;;0.55;0.50;;;8.00;99.90;;;;;;4405151;32;20475;-59
2023/11/04 03:13:55;;;;;;;1.20;0.62;;;8.00;99.90;;;;;;4408550;32;20074;-59
2023/11/04 03:16:21;;;;;;;3.30;0.77;;;8.00;99.90;;;;;;4406121;32;20077;-60
2023/11/04 03:18:47;;;;;;;3.25;0.95;;;8.00;99.90;;;;;;4398430;32;20065;-60
2023/11/04 03:21:12;;;;;;;9.93;1.65;;;7.90;99.90;;;;;;4408637;32;20074;-60
2023/11/04 03:23:39;;;;;;;1.90;0.98;;;7.90;99.90;;;;;;4404725;32;20082;-59
2023/11/04 03:26:07;;;;;;;1.25;1.15;;;7.90;99.90;;;;;;4403991;32;20066;-59
2023/11/04 03:28:35;;;;;;;0.20;0.20;;;7.90;99.90;;;;;;4390646;32;20428;-61
2023/11/04 03:31:01;;;;;;;0.85;0.82;;;7.80;99.90;;;;;;4408325;32;20475;-60
2023/11/04 03:33:27;;;;;;;1.23;0.52;;;7.80;99.90;;;;;;4408730;32;20141;-60
2023/11/04 03:35:54;;;;;;;7.95;1.37;;;7.70;99.90;;;;;;4404707;32;20093;-59
2023/11/04 03:38:19;;;;;;;0.50;0.50;;;7.60;99.90;;;;;;4398442;32;20936;-60
2023/11/04 03:40:45;;;;;;;0.30;0.30;;;7.60;99.90;;;;;;4405717;32;20082;-60
2023/11/04 03:43:10;;;;;;;0.30;0.30;;;7.60;99.90;;;;;;4409160;32;20488;-61
2023/11/04 03:45:35;;;;;;;0.30;0.30;;;7.70;99.90;;;;;;4408010;32;20133;-60
2023/11/04 03:48:01;;;;;;;3.08;0.88;;;7.70;99.90;;;;;;4407247;32;20133;-60
2023/11/04 03:50:26;;;;;;;1.87;0.55;;;7.60;99.90;;;;;;4404019;32;20069;-60
2023/11/04 03:52:52;;;;;;;0.30;0.30;;;7.60;99.90;;;;;;4404604;32;20129;-60
2023/11/04 03:55:17;;;;;;;0.30;0.30;;;7.70;99.90;;;;;;4405758;32;20077;-59
2023/11/04 03:57:43;;;;;;;0.30;0.30;;;7.60;99.90;;;;;;4398816;32;20149;-60
2023/11/04 04:02:35;;;;;;;1.77;1.12;;;7.50;99.90;;;;;;4407911;32;20135;-59
2023/11/04 04:05:00;;;;;;;1.10;0.43;;;7.50;99.90;;;;;;4403932;32;20066;-59
2023/11/04 04:07:26;;;;;;;0.30;0.30;;;7.50;99.90;;;;;;4405306;32;20173;-59
2023/11/04 04:09:51;;;;;;;0.43;0.43;;;7.50;99.90;;;;;;4403172;32;20070;-60
2023/11/04 04:12:17;;;;;;;0.20;0.20;;;7.50;99.90;;;;;;4409591;32;20093;-59
2023/11/04 04:14:44;;;;;;;0.30;0.30;;;7.60;99.90;;;;;;4406521;32;20155;-59
2023/11/04 04:17:10;;;;;;;0.30;0.30;;;7.60;99.90;;;;;;4401274;32;20070;-59
2023/11/04 04:19:37;;;;;;;5.95;0.65;;;7.60;99.90;;;;;;4401777;32;20054;-57
2023/11/04 04:22:03;;;;;;;0.80;0.57;;;7.60;99.90;;;;;;4405984;32;20058;-59
2023/11/04 04:24:28;;;;;;;0.35;0.35;;;7.50;99.90;;;;;;4406986;32;20089;-60
2023/11/04 04:26:53;;;;;;;1.95;0.60;;;7.50;99.90;;;;;;4403113;32;20065;-59
2023/11/04 04:29:23;;;;;;;1.20;1.10;;;7.40;99.90;;;;;;4404735;32;20117;-59
2023/11/04 04:31:49;;;;;;;0.30;0.30;;;7.40;99.90;;;;;;4408573;32;20125;-61
2023/11/04 04:34:15;;;;;;;5.82;2.28;;;7.40;99.90;;;;;;4405319;32;20588;-59
2023/11/04 04:36:40;;;;;;;0.20;0.20;;;7.50;99.90;;;;;;4403725;32;20073;-58
2023/11/04 04:39:07;;;;;;;0.20;0.20;;;7.50;99.90;;;;;;4401833;32;20110;-62
2023/11/04 04:41:32;;;;;;;0.75;0.70;;;7.50;99.90;;;;;;4407448;32;20090;-60
2023/11/04 04:43:58;;;;;;;3.00;1.73;;;7.50;99.90;;;;;;4403989;32;20054;-59
2023/11/04 04:46:23;;;;;;;0.40;0.40;;;7.40;99.90;;;;;;4408694;32;20089;-59
2023/11/04 04:48:48;;;;;;;0.22;0.22;;;7.50;99.90;;;;;;4402539;32;20611;-59
2023/11/04 04:51:16;;;;;;;0.30;0.30;;;7.50;99.90;;;;;;4404002;32;20392;-59
2023/11/04 04:53:42;;;;;;;0.30;0.30;;;7.50;99.90;;;;;;4404075;32;20117;-58
2023/11/04 04:56:08;;;;;;;0.30;0.30;;;7.50;99.90;;;;;;4406117;32;20068;-61
2023/11/04 04:58:33;;;;;;;0.30;0.30;;;7.40;99.90;;;;;;4398227;32;20121;-61
2023/11/04 05:00:58;;;;;;;0.25;0.25;;;7.40;99.90;;;;;;4405704;32;20061;-62
2023/11/04 05:03:24;;;;;;;0.32;0.32;;;7.40;99.90;;;;;;4402427;32;20108;-61
2023/11/04 05:05:49;;;;;;;0.20;0.20;;;7.40;99.90;;;;;;4392787;32;20069;-59
2023/11/04 05:08:15;;;;;;;0.40;0.40;;;7.50;99.90;;;;;;4404790;32;20127;-60
2023/11/04 05:10:40;;;;;;;0.37;0.37;;;7.50;99.90;;;;;;4405883;32;20062;-61
2023/11/04 05:13:06;;;;;;;0.30;0.30;;;7.50;99.90;;;;;;4403740;32;20049;-61
2023/11/04 05:15:33;;;;;;;0.37;0.37;;;7.40;99.90;;;;;;4403915;32;20116;-61
2023/11/04 05:17:59;;;;;;;0.45;0.45;;;7.40;99.90;;;;;;4396663;32;20078;-59
2023/11/04 05:20:24;;;;;;;0.37;0.37;;;7.40;99.90;;;;;;4403798;32;20086;-60
2023/11/04 05:22:50;;;;;;;1.55;0.90;;;7.40;99.90;;;;;;4406182;32;20533;-61
2023/11/04 05:25:15;;;;;;;1.75;1.65;;;7.40;99.90;;;;;;4402684;32;20378;-61
2023/11/04 05:27:41;;;;;;;0.50;0.50;;;7.40;99.90;;;;;;4403372;32;20070;-61
2023/11/04 05:30:07;;;;;;;0.40;0.40;;;7.30;99.90;;;;;;4402952;32;20065;-61
2023/11/04 05:32:33;;;;;;;0.88;0.88;;;7.40;99.90;;;;;;4407341;32;20057;-61
2023/11/04 05:34:58;;;;;;;0.30;0.30;;;7.40;99.90;;;;;;4405921;32;20073;-60
2023/11/04 05:37:24;;;;;;;0.45;0.45;;;7.40;99.90;;;;;;4402334;32;20057;-61
2023/11/04 05:39:49;;;;;;;0.30;0.30;;;7.40;99.90;;;;;;4403114;32;20136;-61
2023/11/04 05:42:16;;;;;;;0.30;0.30;;;7.40;99.90;;;;;;4403785;32;20066;-61
2023/11/04 05:44:41;;;;;;;5.10;1.37;;;7.40;99.90;;;;;;4406840;32;20093;-61
2023/11/04 05:47:07;;;;;;;0.40;0.40;;;7.40;99.90;;;;;;4404169;32;20483;-62
2023/11/04 05:49:32;;;;;;;0.50;0.50;;;7.40;99.90;;;;;;4403313;32;20081;-59
2023/11/04 05:51:57;;;;;;;0.20;0.20;;;7.40;99.90;;;;;;4403609;32;20070;-60
2023/11/04 05:54:23;;;;;;;1.23;1.08;;;7.40;99.90;;;;;;4404710;32;20057;-59
2023/11/04 05:56:48;;;;;;;0.45;0.45;;;7.40;99.90;;;;;;4401058;32;20533;-60
2023/11/04 05:59:14;;;;;;;0.30;0.30;;;7.30;99.90;;;;;;4402717;32;20120;-59
2023/11/04 06:01:39;;;;;;;0.45;0.45;;;7.30;99.90;;;;;;4404935;32;20092;-61
2023/11/04 06:04:05;;;;;;;0.40;0.40;;;7.30;99.90;;;;;;4403090;32;20169;-60
2023/11/04 06:06:30;;;;;;;1.65;1.15;;;7.30;99.90;;;;;;4406560;32;20069;-61
2023/11/04 06:08:56;;;;;;;0.75;0.75;;;7.30;99.90;;;;;;4402917;32;20093;-61
2023/11/04 06:11:21;;;;;;;0.30;0.30;;;7.30;99.90;;;;;;4404175;32;20564;-62
2023/11/04 06:13:47;;;;;;;0.30;0.30;;;7.30;99.90;;;;;;4403118;32;20752;-61
2023/11/04 06:16:12;;;;;;;0.80;0.75;;;7.30;99.90;;;;;;4401489;32;20074;-61
2023/11/04 06:18:38;;;;;;;0.30;0.30;;;7.30;99.90;;;;;;4396940;32;20439;-60
2023/11/04 06:21:04;;;;;;;1.20;1.00;;;7.20;99.90;;;;;;4403483;32;20054;-61
2023/11/04 06:23:30;;;;;;;0.90;0.70;;;7.20;99.90;;;;;;4404345;32;20128;-61
2023/11/04 06:25:56;;;;;;;0.28;0.28;;;7.20;99.90;;;;;;4401833;32;20513;-61
2023/11/04 06:28:21;;;;;;;0.37;0.37;;;7.20;99.90;;;;;;4404009;32;20073;-61
2023/11/04 06:30:46;;;;;;;2.62;0.75;;;7.20;99.90;;;;;;4403173;32;20053;-60
2023/11/04 06:33:12;;;;;;;0.20;0.20;;;7.20;99.90;;;;;;4404734;32;20062;-61
2023/11/04 06:35:38;;;;;;;0.30;0.30;;;7.20;99.90;;;;;;4402230;32;20089;-62
2023/11/04 06:38:04;;;;;;;0.40;0.40;;;7.20;99.90;;;;;;4397333;32;20203;-61
2023/11/04 06:40:30;;;;;;;0.30;0.30;;;7.20;99.90;;;;;;4405864;32;20081;-61
2023/11/04 06:42:56;;;;;;;0.30;0.30;;;7.20;99.90;;;;;;4402138;32;20081;-61
2023/11/04 06:45:21;;;;;;;0.50;0.50;;;7.20;99.90;;;;;;4403729;32;20113;-62
2023/11/04 06:47:47;;;;;;;0.30;0.30;;;7.20;99.90;;;;;;4401294;32;20537;-61
2023/11/04 06:50:12;;;;;;;0.30;0.30;;;7.20;99.90;;;;;;4406856;32;20061;-62
2023/11/04 06:52:38;;;;;;;0.37;0.37;;;7.20;99.90;;;;;;4388003;32;20061;-62
2023/11/04 06:55:04;;;;;;;2.22;1.62;;;7.20;99.90;;;;;;4404014;32;20057;-62
2023/11/04 06:57:29;;;;;;;2.65;1.10;;;7.30;99.90;;;;;;4397654;32;20085;-62
2023/11/04 06:59:56;;;;;;;0.30;0.30;;;7.30;99.90;;;;;;4400539;32;20073;-62
2023/11/04 07:02:21;;;;;;;0.20;0.20;;;7.30;99.90;;;;;;4406714;32;20066;-61
2023/11/04 07:04:47;;;;;;;0.30;0.30;;;7.40;99.90;;;;;;4401888;32;20192;-63
2023/11/04 07:07:12;;;;;;;38.55;0.77;;;7.40;99.90;;;;;;4400685;32;20065;-61
2023/11/04 07:09:38;;;;;;;1.80;0.82;;;7.40;99.90;;;;;;4400845;32;20494;-61
2023/11/04 07:12:04;;;;;;;0.30;0.30;;;7.30;99.90;;;;;;4403065;32;20086;-61
2023/11/04 07:14:31;;;;;;;0.30;0.30;;;7.40;99.90;;;;;;4402213;32;20553;-61
2023/11/04 07:16:57;;;;;;;0.28;0.28;;;7.40;99.90;;;;;;4401936;32;20077;-62
2023/11/04 07:19:22;;;;;;;0.40;0.40;;;7.50;99.90;;;;;;4403131;32;20065;-62
2023/11/04 07:21:48;;;;;;;0.30;0.30;;;7.40;99.90;;;;;;4405133;32;20081;-62
2023/11/04 07:24:13;;;;;;;0.30;0.30;;;7.50;99.90;;;;;;4405428;32;20116;-61
2023/11/04 07:26:39;;;;;;;0.20;0.20;;;7.40;99.90;;;;;;4392320;32;20110;-62
2023/11/04 07:29:06;;;;;;;0.30;0.30;;;7.40;99.90;;;;;;4404685;32;20241;-61
2023/11/04 07:31:35;;;;;;;1.17;1.05;;;7.40;99.90;;;;;;4408871;32;20077;-62
2023/11/04 07:34:02;;;;;;;2.28;0.73;;;7.40;99.90;;;;;;4405454;32;20149;-61
2023/11/04 07:36:28;;;;;;;0.28;0.28;;;7.40;99.90;;;;;;4389783;32;20718;-61
2023/11/04 07:38:53;;;;;;;0.40;0.40;;;7.40;99.90;;;;;;4401592;32;20082;-62
2023/11/04 07:41:19;;;;;;;1.17;0.65;;;7.40;99.90;;;;;;4406817;32;20591;-61
2023/11/04 07:43:44;;;;;;;0.30;0.30;;;7.40;99.90;;;;;;4409231;32;20122;-62
2023/11/04 07:46:10;;;;;;;0.28;0.28;;;7.50;99.90;;;;;;4403015;32;20541;-62
2023/11/04 07:48:35;;;;;;;0.28;0.28;;;7.50;99.90;;;;;;4404799;32;20079;-61
2023/11/04 07:51:01;;;;;;;0.30;0.30;;;7.60;99.90;;;;;;4407204;32;20097;-61
2023/11/04 07:53:27;;;;;;;6.30;1.37;;;7.60;99.90;;;;;;4403678;32;20082;-61
2023/11/04 07:55:53;;;;;;;0.40;0.40;;;7.60;99.90;;;;;;4405467;32;20533;-61
2023/11/04 07:58:21;;;;;;;0.30;0.30;;;7.70;99.90;;;;;;4402538;32;20120;-62
2023/11/04 08:00:46;;;;;;;0.40;0.40;;;7.70;99.90;;;;;;4405273;32;20073;-62
2023/11/04 08:03:12;;;;;;;0.30;0.30;;;7.70;99.90;;;;;;4405094;32;20458;-62
2023/11/04 08:05:40;;;;;;;0.30;0.30;;;7.90;99.90;;;;;;4404532;32;20070;-62
2023/11/04 08:08:06;;;;;;;0.25;0.25;;;7.90;99.90;;;;;;4407146;32;20080;-60
2023/11/04 08:10:33;;;;;;;0.40;0.40;;;8.10;99.90;;;;;;4406791;32;20454;-62
2023/11/04 08:12:58;;;;;;;0.73;0.50;;;8.10;99.90;;;;;;4405434;32;20054;-61
2023/11/04 08:15:24;;;;;;;0.50;0.50;;;8.20;99.90;;;;;;4406518;32;20090;-59
2023/11/04 08:17:49;;;;;;;0.40;0.40;;;8.20;99.90;;;;;;4402797;32;20109;-62
2023/11/04 08:20:15;;;;;;;0.40;0.40;;;8.30;99.90;;;;;;4403106;32;20085;-61
2023/11/04 08:22:44;;;;;;;0.37;0.37;;;8.40;99.90;;;;;;4389981;32;20069;-62
2023/11/04 08:25:10;;;;;;;3.20;0.77;;;8.40;99.90;;;;;;4405655;32;20416;-61
2023/11/04 08:27:35;;;;;;;0.30;0.30;;;8.40;99.90;;;;;;4403172;32;20073;-61
2023/11/04 08:30:03;;;;;;;0.50;0.50;;;8.40;99.90;;;;;;4401822;32;20078;-62
2023/11/04 08:32:29;;;;;;;0.30;0.30;;;8.50;99.90;;;;;;4402180;32;20062;-62
2023/11/04 08:34:56;;;;;;;0.40;0.40;;;8.60;99.90;;;;;;4404478;32;20089;-61
2023/11/04 08:37:22;;;;;;;0.80;0.80;;;8.60;99.90;;;;;;4399153;32;20139;-61
2023/11/04 08:39:47;;;;;;;0.50;0.50;;;8.70;99.90;;;;;;4402953;32;20069;-61
2023/11/04 08:42:13;;;;;;;0.30;0.30;;;8.80;99.90;;;;;;4406266;32;20127;-62
2023/11/04 08:44:38;;;;;;;0.35;0.35;;;8.90;99.90;;;;;;4404228;32;20089;-60
2023/11/04 08:47:04;;;;;;;4.22;0.73;;;9.00;99.90;;;;;;4406868;32;20081;-62
2023/11/04 08:49:29;;;;;;;1.45;0.70;;;9.10;99.90;;;;;;4406115;32;20073;-62
2023/11/04 08:51:56;;;;;;;0.40;0.40;;;9.20;99.90;;;;;;4407532;32;20408;-62
2023/11/04 08:54:22;;;;;;;0.40;0.40;;;9.30;99.90;;;;;;4406174;32;20129;-61
2023/11/04 08:56:48;;;;;;;0.30;0.30;;;9.40;99.90;;;;;;4403525;32;20116;-59
2023/11/04 08:59:14;;;;;;;0.77;0.77;;;9.50;99.90;;;;;;4402663;32;20074;-61
2023/11/04 09:01:40;;;;;;;0.75;0.65;;;9.60;99.90;;;;;;4406542;32;20533;-62
2023/11/04 09:04:06;;;;;;;0.28;0.28;;;9.50;99.90;;;;;;4405408;32;20069;-61
2023/11/04 09:06:31;;;;;;;0.50;0.50;;;9.70;99.90;;;;;;4404274;32;20469;-61
2023/11/04 09:08:57;;;;;;;0.50;0.50;;;9.90;99.90;;;;;;4405097;32;20098;-60
2023/11/04 09:11:23;;;;;;;0.30;0.30;;;10.00;99.90;;;;;;4406248;32;20078;-61
2023/11/04 09:13:48;;;;;;;0.35;0.35;;;10.00;99.90;;;;;;4406763;32;20744;-61
2023/11/04 09:16:14;;;;;;;0.30;0.30;;;10.10;99.90;;;;;;4404760;32;20128;-61
2023/11/04 09:18:39;;;;;;;0.60;0.60;;;10.10;99.90;;;;;;4400343;32;20070;-59
2023/11/04 09:21:05;;;;;;;0.60;0.60;;;10.20;99.90;;;;;;4405106;32;20057;-61
2023/11/04 09:23:31;;;;;;;0.30;0.30;;;10.30;99.90;;;;;;4407291;32;20113;-61
2023/11/04 09:25:56;;;;;;;0.40;0.40;;;10.40;99.90;;;;;;4405661;32;20089;-61
2023/11/04 09:28:22;;;;;;;0.20;0.20;;;10.60;99.90;;;;;;4403292;32;20124;-60
2023/11/04 09:30:49;;;;;;;0.30;0.30;;;10.70;99.90;;;;;;4405070;32;20074;-61
2023/11/04 09:33:15;;;;;;;0.50;0.50;;;10.80;99.90;;;;;;4396289;32;20444;-61
2023/11/04 09:35:41;;;;;;;0.22;0.22;;;10.90;99.90;;;;;;4402197;32;20062;-61
2023/11/04 09:38:06;;;;;;;0.52;0.52;;;10.90;99.90;;;;;;4399584;32;20427;-62
2023/11/04 09:40:32;;;;;;;0.30;0.30;;;11.00;99.90;;;;;;4403609;32;20127;-61
2023/11/04 09:42:58;;;;;;;0.37;0.37;;;11.00;99.90;;;;;;4406625;32;20081;-60
2023/11/04 09:45:24;;;;;;;0.20;0.20;;;11.10;99.90;;;;;;4388984;32;20074;-60
2023/11/04 09:47:52;;;;;;;0.20;0.20;;;11.10;99.90;;;;;;4405111;32;20093;-60
2023/11/04 09:50:18;;;;;;;0.50;0.50;;;11.10;99.90;;;;;;4400562;32;20444;-60
2023/11/04 09:52:48;;;;;;;0.40;0.40;;;11.10;99.90;;;;;;4403105;32;20073;-59
2023/11/04 09:55:15;;;;;;;0.30;0.30;;;11.00;99.90;;;;;;4401297;32;20301;-60
2023/11/04 09:57:41;;;;;;;0.28;0.28;;;11.00;99.90;;;;;;4397800;32;20621;-60
2023/11/04 10:02:35;;;;;;;0.25;0.25;;;11.10;99.90;;;;;;4402524;32;20513;-60
2023/11/04 10:05:01;;;;;;;0.40;0.40;;;11.10;99.90;;;;;;4405380;32;20131;-59
2023/11/04 10:07:26;;;;;;;0.40;0.40;;;11.10;99.90;;;;;;4402570;32;20073;-60
2023/11/04 10:09:53;;;;;;;0.70;0.70;;;11.20;99.90;;;;;;4402806;32;20078;-60
2023/11/04 10:12:20;;;;;;;0.20;0.20;;;11.20;99.90;;;;;;4406769;32;20066;-62
2023/11/04 10:14:46;;;;;;;0.30;0.30;;;11.10;99.90;;;;;;4399888;32;20062;-60
2023/11/04 10:17:12;;;;;;;0.40;0.40;;;11.10;99.90;;;;;;4398839;32;20053;-60
2023/11/04 10:19:38;;;;;;;0.20;0.20;;;11.10;99.90;;;;;;4402260;32;20128;-61
2023/11/04 10:22:04;;;;;;;0.40;0.40;;;11.20;99.90;;;;;;4404752;32;20521;-62
2023/11/04 10:24:29;;;;;;;0.40;0.40;;;11.40;99.90;;;;;;4404037;32;20061;-61
2023/11/04 10:26:56;;;;;;;0.30;0.30;;;11.60;99.90;;;;;;4403406;32;20104;-61
2023/11/04 10:29:21;;;;;;;0.45;0.45;;;11.40;99.90;;;;;;4405591;32;20112;-62
2023/11/04 10:31:48;;;;;;;0.30;0.30;;;11.40;99.90;;;;;;4402587;32;20510;-62
2023/11/04 10:34:14;;;;;;;0.30;0.30;;;11.40;99.90;;;;;;4398799;32;20581;-62
2023/11/04 10:36:44;;;;;;;0.50;0.50;;;11.50;99.90;;;;;;4402526;32;20494;-62
2023/11/04 10:39:13;;;;;;;0.57;0.57;;;11.50;99.90;;;;;;4402591;32;20065;-62
2023/11/04 10:41:44;;;;;;;0.40;0.40;;;11.70;99.90;;;;;;4404269;32;20066;-60
2023/11/04 10:44:15;;;;;;;0.30;0.30;;;11.60;99.90;;;;;;4404253;32;20070;-61
2023/11/04 10:46:58;;;;;;;0.40;0.40;;;11.50;99.90;;;;;;4401332;32;20073;-62
2023/11/04 10:49:29;;;;;;;0.45;0.45;;;11.60;99.90;;;;;;4404589;32;20439;-61
2023/11/04 10:52:04;;;;;;;0.37;0.35;;;11.70;99.90;;;;;;4389543;32;20113;-61
2023/11/04 10:54:39;;;;;;;1.25;0.90;;;11.90;99.90;;;;;;4402220;32;20065;-62
2023/11/04 10:57:16;;;;;;;0.30;0.30;;;11.90;99.90;;;;;;4400499;32;20406;-61
2023/11/04 10:59:54;;;;;;;0.40;0.40;;;12.10;99.90;;;;;;4403834;32;20110;-61
2023/11/04 11:02:21;;;;;;;0.70;0.50;;;12.10;99.90;;;;;;4407226;32;20086;-61
2023/11/04 11:04:47;;;;;;;0.50;0.50;;;12.20;99.90;;;;;;4408289;32;20424;-62
2023/11/04 11:07:17;;;;;;;0.40;0.40;;;12.30;99.90;;;;;;4401810;32;20069;-61
2023/11/04 11:09:44;;;;;;;0.40;0.40;;;12.40;99.90;;;;;;4409517;32;20447;-61
2023/11/04 11:12:16;;;;;;;7.28;0.73;;;12.40;99.90;;;;;;4403618;32;20069;-62
2023/11/04 11:14:42;;;;;;;0.40;0.40;;;12.40;99.90;;;;;;4407437;32;20077;-62
2023/11/04 11:17:08;;;;;;;0.30;0.30;;;12.50;99.90;;;;;;4401927;32;20518;-61
2023/11/04 11:19:34;;;;;;;6.03;0.57;;;12.60;99.90;;;;;;4402679;32;20081;-61
2023/11/04 11:22:02;;;;;;;0.47;0.47;;;12.30;99.90;;;;;;4407504;32;20074;-62
2023/11/04 11:24:28;;;;;;;0.32;0.32;;;12.20;99.90;;;;;;4404291;32;20600;-62
2023/11/04 11:27:00;;;;;;;0.30;0.30;;;12.20;99.90;;;;;;4405414;32;20097;-62
2023/11/04 11:29:27;;;;;;;0.50;0.50;;;12.60;99.90;;;;;;4390045;32;20073;-62
2023/11/04 11:32:08;;;;;;;0.37;0.37;;;13.00;99.90;;;;;;4405525;32;20057;-62
2023/11/04 11:34:34;;;;;;;1.23;0.40;;;13.10;99.90;;;;;;4402277;32;20062;-63
2023/11/04 11:37:01;;;;;;;0.35;0.35;;;13.40;99.90;;;;;;4398095;32;20114;-62
2023/11/04 11:39:28;;;;;;;0.30;0.30;;;13.10;99.90;;;;;;4402979;32;20502;-62
2023/11/04 11:41:55;;;;;;;0.40;0.40;;;12.90;99.90;;;;;;4405270;32;20062;-61
2023/11/04 11:44:21;;;;;;;0.22;0.22;;;13.00;99.90;;;;;;4405787;32;20082;-62
2023/11/04 11:46:47;;;;;;;0.30;0.30;;;13.10;99.90;;;;;;4405036;32;20077;-62
2023/11/04 11:49:12;;;;;;;0.40;0.40;;;13.00;99.90;;;;;;4398106;32;87885;-61
2023/11/04 11:51:38;;;;;;;0.30;0.30;;;13.10;99.90;;;;;;4406780;32;20081;-62
2023/11/04 11:54:04;;;;;;;0.65;0.65;;;13.20;99.90;;;;;;4403380;32;20146;-62
2023/11/04 11:56:30;;;;;;;0.40;0.40;;;13.10;99.90;;;;;;4400053;32;20113;-62
2023/11/04 11:59:06;;;;;;;0.40;0.40;;;13.60;99.90;;;;;;4406510;32;20190;-62
2023/11/04 12:01:33;;;;;;;0.37;0.37;;;14.20;99.90;;;;;;4389092;32;20065;-62
2023/11/04 12:04:01;;;;;;;0.30;0.30;;;13.90;99.90;;;;;;4402702;32;20059;-62
2023/11/04 12:06:28;;;;;;;0.40;0.40;;;13.70;99.90;;;;;;4404812;32;20086;-62
2023/11/04 12:08:56;;;;;;;0.40;0.40;;;13.50;99.90;;;;;;4402943;32;20077;-63
2023/11/04 12:11:23;;;;;;;0.40;0.40;;;13.60;99.90;;;;;;4403234;32;20061;-62
2023/11/04 12:13:49;;;;;;;1.30;1.20;;;13.70;99.90;;;;;;4405153;32;20137;-62
2023/11/04 12:16:15;;;;;;;0.40;0.40;;;14.10;99.90;;;;;;4404961;32;20079;-62
2023/11/04 12:18:40;;;;;;;0.50;0.50;;;14.40;99.90;;;;;;4402748;32;20144;-62
2023/11/04 12:21:10;;;;;;;0.50;0.50;;;14.50;99.90;;;;;;4401359;32;20085;-62
2023/11/04 12:23:36;;;;;;;0.40;0.40;;;14.70;99.90;;;;;;4404152;32;20083;-63
2023/11/04 12:26:01;;;;;;;0.40;0.40;;;14.60;99.90;;;;;;4406254;32;20430;-63
2023/11/04 12:28:27;;;;;;;0.37;0.37;;;15.00;99.90;;;;;;4403156;32;21092;-62
2023/11/04 12:31:01;;;;;;;0.40;0.40;;;15.20;99.90;;;;;;4406602;32;20084;-63
2023/11/04 12:33:28;;;;;;;0.40;0.40;;;15.40;99.90;;;;;;4392031;32;21173;-62
2023/11/04 12:36:00;;;;;;;0.32;0.32;;;15.30;99.90;;;;;;4391437;32;20625;-62
2023/11/04 12:38:26;;;;;;;0.40;0.40;;;14.50;99.90;;;;;;4401809;32;20077;-61
2023/11/04 12:40:53;;;;;;;0.40;0.40;;;14.20;99.90;;;;;;4407816;32;20066;-61
2023/11/04 12:43:20;;;;;;;0.40;0.40;;;13.80;99.90;;;;;;4403889;32;20124;-61
2023/11/04 12:45:47;;;;;;;0.40;0.40;;;13.40;99.90;;;;;;4407361;32;20128;-62
2023/11/04 12:48:12;;;;;;;0.40;0.40;;;13.20;99.90;;;;;;4403373;32;20054;-60
2023/11/04 12:50:38;;;;;;;0.30;0.30;;;13.00;99.90;;;;;;4400885;32;20502;-61
2023/11/04 12:53:04;;;;;;;0.40;0.40;;;12.80;99.90;;;;;;4407898;32;20140;-61
2023/11/04 12:55:29;;;;;;;0.30;0.30;;;12.60;99.90;;;;;;4406196;32;20105;-61
2023/11/04 12:57:55;;;;;;;0.30;0.30;;;12.40;99.90;;;;;;4399232;32;20116;-61